Time;durP1;ratioP1;P1;durP2;ratioP2;P2;SDS_P1;SDS_P2;PMS_P1;PMS_P2;Temp;Humidity;BMP_temperature;BMP_pressure;BME280_temperature;BME280_humidity;BME280_pressure;Samples;Min_cycle;Max_cycle;Signal;HPM_P1;HPM_P2
2021/06/14 00:01:10;;;;;;;6.05;2.90;;;19.90;72.80;;;;;;5174150;27;20053;-86
2021/06/14 00:03:36;;;;;;;7.20;3.20;;;19.80;72.70;;;;;;5173664;27;20046;-86
2021/06/14 00:06:01;;;;;;;6.95;3.20;;;19.70;72.70;;;;;;5161767;27;20506;-86
2021/06/14 00:08:27;;;;;;;8.75;3.25;;;19.60;72.80;;;;;;5151799;27;20047;-86
2021/06/14 00:10:55;;;;;;;7.07;3.13;;;19.60;72.80;;;;;;5152875;27;20043;-87
2021/06/14 00:13:23;;;;;;;4.90;2.65;;;19.60;73.00;;;;;;5153194;27;20088;-86
2021/06/14 00:15:49;;;;;;;6.13;2.90;;;19.50;73.00;;;;;;5153844;27;20051;-87
2021/06/14 00:18:16;;;;;;;6.38;3.03;;;19.40;72.90;;;;;;5153631;27;20444;-86
2021/06/14 00:20:49;;;;;;;9.18;3.42;;;19.40;73.10;;;;;;5152589;27;20110;-87
2021/06/14 00:23:15;;;;;;;6.68;3.00;;;19.30;73.10;;;;;;5153961;27;20043;-87
2021/06/14 00:25:40;;;;;;;7.68;3.20;;;19.30;73.20;;;;;;5154434;27;20047;-86
2021/06/14 00:28:06;;;;;;;6.53;3.00;;;19.20;73.10;;;;;;5152927;27;20077;-86
2021/06/14 00:30:39;;;;;;;7.25;3.30;;;19.20;73.30;;;;;;5153382;27;20074;-87
2021/06/14 00:33:06;;;;;;;6.45;3.20;;;19.10;73.30;;;;;;5157154;27;20054;-86
2021/06/14 00:35:32;;;;;;;6.57;3.20;;;19.10;73.70;;;;;;5162949;27;20049;-87
2021/06/14 00:37:58;;;;;;;6.57;3.00;;;19.00;73.80;;;;;;5178476;27;20050;-87
2021/06/14 00:40:24;;;;;;;6.05;2.92;;;19.00;73.90;;;;;;5177372;27;20094;-87
2021/06/14 00:42:50;;;;;;;7.20;3.15;;;18.90;73.80;;;;;;5177799;27;20124;-87
2021/06/14 00:45:20;;;;;;;8.32;3.47;;;18.90;73.60;;;;;;5169889;27;20050;-87
2021/06/14 00:47:46;;;;;;;6.55;3.28;;;18.80;73.50;;;;;;5156428;27;20082;-87
2021/06/14 00:50:15;;;;;;;9.15;3.10;;;18.80;73.90;;;;;;5157213;27;20486;-86
2021/06/14 00:52:40;;;;;;;6.97;3.22;;;18.70;74.20;;;;;;5156990;27;20443;-87
2021/06/14 00:55:08;;;;;;;6.50;3.20;;;18.70;74.20;;;;;;5156376;27;20047;-87
2021/06/14 00:57:33;;;;;;;7.00;3.13;;;18.70;74.10;;;;;;5157027;27;20058;-87
2021/06/14 01:00:00;;;;;;;6.60;3.00;;;18.60;74.10;;;;;;5157248;27;20493;-87
2021/06/14 01:02:26;;;;;;;7.70;3.58;;;18.50;74.10;;;;;;5155997;27;20061;-87
2021/06/14 01:04:51;;;;;;;9.52;3.15;;;18.50;74.20;;;;;;5157368;27;20394;-87
2021/06/14 01:07:17;;;;;;;7.70;3.13;;;18.50;74.50;;;;;;5156827;27;20130;-87
2021/06/14 01:09:43;;;;;;;5.72;3.08;;;18.40;74.20;;;;;;5154420;27;20102;-87
2021/06/14 01:12:09;;;;;;;7.93;3.50;;;18.40;74.30;;;;;;5155342;27;20138;-88
2021/06/14 01:15:09;;;;;;;6.65;3.20;;;18.40;74.50;;;;;;5153721;27;20050;-88
2021/06/14 01:17:37;;;;;;;7.55;3.38;;;18.30;73.90;;;;;;5155309;27;20053;-88
2021/06/14 01:20:27;;;;;;;7.45;3.03;;;18.20;75.00;;;;;;5157019;27;20054;-87
2021/06/14 01:23:21;;;;;;;7.38;3.53;;;18.20;74.40;;;;;;5156134;27;20054;-87
2021/06/14 01:25:51;;;;;;;7.95;3.13;;;18.20;75.20;;;;;;5172491;27;20385;-86
2021/06/14 01:28:20;;;;;;;6.63;3.28;;;18.10;75.10;;;;;;5159355;27;20099;-87
2021/06/14 01:30:47;;;;;;;6.82;3.08;;;18.10;75.60;;;;;;5155280;27;20066;-86
2021/06/14 01:33:16;;;;;;;6.38;2.92;;;18.10;75.60;;;;;;5156656;27;20107;-86
2021/06/14 01:35:50;;;;;;;7.13;3.28;;;18.10;75.30;;;;;;5164112;27;20455;-86
2021/06/14 01:38:18;;;;;;;6.32;3.13;;;18.00;75.30;;;;;;5170562;27;20054;-86
2021/06/14 01:40:47;;;;;;;7.53;3.83;;;18.00;75.40;;;;;;5165401;27;20076;-86
2021/06/14 01:43:15;;;;;;;6.82;3.35;;;17.90;75.70;;;;;;5164451;27;20043;-86
2021/06/14 01:45:46;;;;;;;7.22;3.08;;;17.90;76.00;;;;;;5162259;27;20393;-86
2021/06/14 01:48:14;;;;;;;7.45;3.20;;;17.90;76.20;;;;;;5156484;27;20042;-85
2021/06/14 01:50:41;;;;;;;7.07;3.17;;;17.90;76.30;;;;;;5155115;27;20045;-86
2021/06/14 01:53:07;;;;;;;6.75;3.35;;;17.90;76.40;;;;;;5156263;27;20047;-87
2021/06/14 01:55:34;;;;;;;6.50;3.38;;;17.90;76.30;;;;;;5164676;27;20045;-85
2021/06/14 01:58:00;;;;;;;6.30;3.40;;;17.80;76.20;;;;;;5176361;27;20090;-87
2021/06/14 02:00:27;;;;;;;6.35;2.63;;;17.80;76.30;;;;;;5174619;27;20129;-86
2021/06/14 02:02:53;;;;;;;7.00;3.20;;;17.70;76.10;;;;;;5176647;27;20058;-87
2021/06/14 02:05:22;;;;;;;6.00;3.22;;;17.70;76.30;;;;;;5176077;27;20043;-87
2021/06/14 02:07:47;;;;;;;6.55;3.25;;;17.70;75.90;;;;;;5176718;27;20042;-87
2021/06/14 02:10:14;;;;;;;7.15;3.28;;;17.60;75.60;;;;;;5176729;27;20069;-86
2021/06/14 02:12:44;;;;;;;5.72;3.08;;;17.60;75.70;;;;;;5165905;27;20042;-86
2021/06/14 02:15:11;;;;;;;7.95;3.50;;;17.50;75.80;;;;;;5155778;27;20047;-86
2021/06/14 02:17:39;;;;;;;5.85;3.05;;;17.50;76.10;;;;;;5154336;27;20050;-86
2021/06/14 02:20:07;;;;;;;7.20;3.30;;;17.40;75.90;;;;;;5151935;27;20474;-86
2021/06/14 02:22:34;;;;;;;5.63;3.03;;;17.40;76.50;;;;;;5153648;27;20520;-86
2021/06/14 02:24:59;;;;;;;5.60;3.08;;;17.40;76.70;;;;;;5158504;27;20062;-87
2021/06/14 02:27:25;;;;;;;7.38;3.55;;;17.30;76.40;;;;;;5155451;27;20077;-85
2021/06/14 02:29:51;;;;;;;7.30;3.50;;;17.30;76.80;;;;;;5155202;27;20463;-86
2021/06/14 02:32:16;;;;;;;7.38;3.50;;;17.30;76.80;;;;;;5155632;27;20475;-85
2021/06/14 02:34:44;;;;;;;6.47;3.47;;;17.20;76.70;;;;;;5136732;27;20046;-85
2021/06/14 02:37:12;;;;;;;8.80;3.40;;;17.20;77.00;;;;;;5176048;27;20046;-86
2021/06/14 02:39:38;;;;;;;7.88;3.42;;;17.20;77.20;;;;;;5175641;27;20046;-86
2021/06/14 02:42:04;;;;;;;7.70;3.50;;;17.10;77.50;;;;;;5175566;27;20046;-86
2021/06/14 02:44:31;;;;;;;6.53;3.53;;;17.10;77.30;;;;;;5175936;27;20042;-86
2021/06/14 02:47:06;;;;;;;6.68;3.47;;;17.00;77.30;;;;;;5175268;27;20050;-86
2021/06/14 02:49:33;;;;;;;6.32;3.05;;;17.00;77.40;;;;;;5175892;27;20091;-86
2021/06/14 02:52:02;;;;;;;8.80;3.50;;;17.00;77.70;;;;;;5175468;27;20042;-86
2021/06/14 02:54:37;;;;;;;7.38;3.55;;;16.90;77.70;;;;;;5174801;27;20050;-86
2021/06/14 02:57:11;;;;;;;6.65;3.50;;;16.90;77.30;;;;;;5176223;27;20050;-86
2021/06/14 02:59:38;;;;;;;7.68;3.45;;;16.90;77.70;;;;;;5175620;27;20056;-85
2021/06/14 03:02:05;;;;;;;8.02;3.70;;;16.80;77.60;;;;;;5174374;27;20141;-86
2021/06/14 03:04:32;;;;;;;8.13;3.35;;;16.80;77.80;;;;;;5175263;27;20038;-85
2021/06/14 03:06:58;;;;;;;7.38;3.70;;;16.70;77.60;;;;;;5175798;27;20042;-86
2021/06/14 03:09:25;;;;;;;7.60;3.60;;;16.70;77.70;;;;;;5174583;27;20053;-86
2021/06/14 03:11:52;;;;;;;8.50;3.60;;;16.60;77.70;;;;;;5175438;27;20086;-86
2021/06/14 03:14:18;;;;;;;8.40;3.65;;;16.60;77.80;;;;;;5175571;27;20427;-85
2021/06/14 03:16:45;;;;;;;8.23;3.28;;;16.60;77.90;;;;;;5174428;27;20088;-85
2021/06/14 03:19:12;;;;;;;7.50;3.50;;;16.60;77.80;;;;;;5175409;27;20409;-86
2021/06/14 03:21:38;;;;;;;10.77;4.00;;;16.60;77.30;;;;;;5174915;27;20050;-86
2021/06/14 03:24:05;;;;;;;8.18;3.90;;;16.50;77.40;;;;;;5173295;27;20038;-86
2021/06/14 03:26:36;;;;;;;7.30;3.75;;;16.50;77.50;;;;;;5174030;27;20175;-87
2021/06/14 03:29:02;;;;;;;8.63;3.50;;;16.50;77.70;;;;;;5173075;27;20127;-86
2021/06/14 03:31:29;;;;;;;8.25;3.70;;;16.40;77.60;;;;;;5160962;27;20390;-86
2021/06/14 03:33:55;;;;;;;8.85;4.20;;;16.40;77.40;;;;;;5154344;27;20046;-86
2021/06/14 03:36:23;;;;;;;8.48;3.80;;;16.40;78.00;;;;;;5153830;27;20447;-86
2021/06/14 03:38:50;;;;;;;6.68;3.67;;;16.40;78.00;;;;;;5154529;27;20054;-87
2021/06/14 03:41:18;;;;;;;8.38;4.30;;;16.30;78.20;;;;;;5154335;27;20046;-86
2021/06/14 03:43:44;;;;;;;10.68;4.10;;;16.30;78.50;;;;;;5153205;27;20561;-86
2021/06/14 03:46:10;;;;;;;8.02;4.03;;;16.30;78.00;;;;;;5154246;27;20066;-86
2021/06/14 03:48:36;;;;;;;7.53;4.10;;;16.30;78.20;;;;;;5154212;27;20054;-86
2021/06/14 03:51:02;;;;;;;9.77;4.68;;;16.30;78.40;;;;;;5157189;27;20095;-86
2021/06/14 03:53:31;;;;;;;8.13;4.35;;;16.20;78.30;;;;;;5174876;27;20046;-86
2021/06/14 03:56:05;;;;;;;9.45;4.78;;;16.20;78.40;;;;;;5175217;27;20047;-86
2021/06/14 03:58:31;;;;;;;9.13;4.40;;;16.20;78.40;;;;;;5174098;27;20043;-87
2021/06/14 04:00:58;;;;;;;6.72;4.25;;;16.20;78.40;;;;;;5165007;27;20039;-87
2021/06/14 04:03:27;;;;;;;8.65;4.30;;;16.20;78.70;;;;;;5153982;27;20046;-86
2021/06/14 04:05:55;;;;;;;9.18;4.38;;;16.20;78.60;;;;;;5153534;27;20439;-85
2021/06/14 04:08:21;;;;;;;9.18;4.68;;;16.20;78.50;;;;;;5157702;27;20047;-86
2021/06/14 04:10:47;;;;;;;9.55;4.50;;;16.10;78.50;;;;;;5157638;27;20039;-86
2021/06/14 04:13:13;;;;;;;9.80;4.88;;;16.10;78.70;;;;;;5157181;27;20383;-86
2021/06/14 04:15:39;;;;;;;8.20;4.28;;;16.10;78.70;;;;;;5157863;27;20049;-86
2021/06/14 04:18:05;;;;;;;8.05;4.60;;;16.10;78.60;;;;;;5158207;27;20379;-86
2021/06/14 04:20:30;;;;;;;9.20;4.40;;;16.00;78.60;;;;;;5156950;27;20457;-86
2021/06/14 04:22:56;;;;;;;7.30;4.30;;;16.00;78.60;;;;;;5158096;27;20056;-86
2021/06/14 04:25:22;;;;;;;8.63;4.63;;;16.00;78.60;;;;;;5156867;27;20134;-86
2021/06/14 04:27:48;;;;;;;8.07;4.75;;;16.00;78.70;;;;;;5157637;27;20122;-87
2021/06/14 04:30:15;;;;;;;8.93;4.78;;;16.00;78.80;;;;;;5160727;27;20137;-87
2021/06/14 04:32:41;;;;;;;9.07;4.80;;;16.00;78.80;;;;;;5176052;27;20053;-86
2021/06/14 04:35:07;;;;;;;9.77;4.90;;;16.00;78.60;;;;;;5175770;27;20438;-86
2021/06/14 04:37:33;;;;;;;9.40;4.80;;;16.00;78.90;;;;;;5176491;27;20405;-86
2021/06/14 04:39:59;;;;;;;8.93;4.70;;;15.90;78.80;;;;;;5177719;27;20042;-87
2021/06/14 04:42:27;;;;;;;9.30;4.80;;;16.00;78.20;;;;;;5162013;27;20527;-86
2021/06/14 04:44:53;;;;;;;8.77;4.43;;;16.00;77.70;;;;;;5157428;27;20072;-87
2021/06/14 04:47:19;;;;;;;8.57;5.07;;;15.90;77.00;;;;;;5156638;27;20057;-86
2021/06/14 04:49:44;;;;;;;9.88;4.88;;;15.90;77.40;;;;;;5157150;27;20047;-85
2021/06/14 04:52:10;;;;;;;8.95;4.95;;;15.90;77.50;;;;;;5157378;27;20482;-87
2021/06/14 04:54:36;;;;;;;8.80;5.15;;;15.90;78.00;;;;;;5156232;27;20051;-86
2021/06/14 04:57:01;;;;;;;8.52;4.80;;;15.90;77.60;;;;;;5157225;27;20046;-86
2021/06/14 04:59:27;;;;;;;8.50;5.13;;;15.90;77.80;;;;;;5157151;27;20070;-86
2021/06/14 05:01:53;;;;;;;13.52;6.18;;;15.90;77.60;;;;;;5158925;27;20059;-86
2021/06/14 05:04:18;;;;;;;10.55;4.82;;;15.90;78.00;;;;;;5157058;27;20065;-87
2021/06/14 05:06:44;;;;;;;9.25;4.97;;;15.90;78.00;;;;;;5170652;27;20053;-86
2021/06/14 05:09:10;;;;;;;13.73;5.97;;;15.90;77.80;;;;;;5176962;27;20046;-86
2021/06/14 05:11:35;;;;;;;8.60;5.03;;;16.00;77.90;;;;;;5176736;27;20054;-86
2021/06/14 05:14:01;;;;;;;8.05;4.45;;;15.90;77.80;;;;;;5177906;27;20042;-87
2021/06/14 05:16:27;;;;;;;11.85;5.85;;;15.90;77.80;;;;;;5172363;27;20039;-86
2021/06/14 05:18:52;;;;;;;8.75;5.05;;;16.00;78.20;;;;;;5165306;27;20393;-87
2021/06/14 05:21:18;;;;;;;9.43;5.00;;;16.00;78.10;;;;;;5167661;27;20049;-86
2021/06/14 05:23:44;;;;;;;9.45;4.68;;;16.00;78.40;;;;;;5165692;27;20430;-86
2021/06/14 05:26:09;;;;;;;13.18;6.47;;;16.00;78.60;;;;;;5165861;27;20485;-86
2021/06/14 05:28:35;;;;;;;8.68;4.97;;;16.10;78.50;;;;;;5161533;27;20068;-88
2021/06/14 05:31:01;;;;;;;12.90;5.35;;;16.10;79.30;;;;;;5156080;27;20047;-87
2021/06/14 05:33:26;;;;;;;12.13;5.65;;;16.10;78.40;;;;;;5158395;27;20058;-87
2021/06/14 05:35:52;;;;;;;10.65;5.70;;;16.20;78.30;;;;;;5166660;27;20038;-87
2021/06/14 05:38:18;;;;;;;13.70;6.30;;;16.20;78.60;;;;;;5176335;27;20095;-87
2021/06/14 05:40:44;;;;;;;13.07;5.90;;;16.30;78.40;;;;;;5161432;27;20042;-89
2021/06/14 05:43:10;;;;;;;11.30;6.13;;;16.30;78.00;;;;;;5155774;27;20078;-83
2021/06/14 05:45:35;;;;;;;11.07;6.13;;;16.40;77.70;;;;;;5156130;27;20042;-85
2021/06/14 05:48:01;;;;;;;10.25;5.57;;;16.40;77.30;;;;;;5156035;27;20078;-84
2021/06/14 05:50:27;;;;;;;13.23;5.30;;;16.50;77.00;;;;;;5155246;27;20043;-85
2021/06/14 05:52:52;;;;;;;11.05;5.88;;;16.50;77.00;;;;;;5156388;27;20073;-90
2021/06/14 05:55:18;;;;;;;12.00;5.80;;;16.60;77.10;;;;;;5156513;27;20107;-89
2021/06/14 05:57:44;;;;;;;13.27;5.18;;;16.60;77.00;;;;;;5155253;27;20591;-87
2021/06/14 06:00:10;;;;;;;10.68;5.68;;;16.60;76.50;;;;;;5156151;27;20038;-89
2021/06/14 06:02:36;;;;;;;11.80;6.05;;;16.70;76.40;;;;;;5149102;27;20058;-88
2021/06/14 06:05:01;;;;;;;12.60;5.50;;;16.70;76.00;;;;;;5163034;27;20042;-91
2021/06/14 06:07:27;;;;;;;11.10;5.93;;;16.80;76.10;;;;;;5172966;27;20047;-88
2021/06/14 06:09:53;;;;;;;10.88;5.25;;;16.80;75.70;;;;;;5163956;27;20043;-88
2021/06/14 06:12:19;;;;;;;13.80;6.10;;;16.90;75.70;;;;;;5155118;27;20059;-90
2021/06/14 06:14:46;;;;;;;10.10;5.10;;;17.00;75.60;;;;;;5156041;27;20049;-88
2021/06/14 06:17:12;;;;;;;12.43;5.60;;;17.00;75.30;;;;;;5176191;27;20125;-88
2021/06/14 06:19:37;;;;;;;12.95;5.05;;;17.10;74.80;;;;;;5173214;27;20126;-89
2021/06/14 06:22:03;;;;;;;10.30;4.88;;;17.20;74.30;;;;;;5176886;27;20469;-89
2021/06/14 06:24:29;;;;;;;12.82;4.65;;;17.30;73.90;;;;;;5170775;27;20617;-87
2021/06/14 06:26:55;;;;;;;10.38;4.68;;;17.50;73.60;;;;;;5160257;27;20057;-87
2021/06/14 06:29:21;;;;;;;12.38;5.05;;;17.50;73.10;;;;;;5174458;27;20119;-90
2021/06/14 06:31:46;;;;;;;9.82;4.68;;;17.70;73.50;;;;;;5175916;27;20049;-88
2021/06/14 06:34:12;;;;;;;10.75;4.32;;;17.80;73.30;;;;;;5170157;27;20041;-89
2021/06/14 06:36:38;;;;;;;10.00;4.55;;;17.90;73.10;;;;;;5156840;27;20074;-89
2021/06/14 06:39:04;;;;;;;9.88;4.30;;;18.00;72.60;;;;;;5170082;27;20038;-88
2021/06/14 06:41:30;;;;;;;12.27;4.68;;;18.10;72.50;;;;;;5155963;27;20054;-93
2021/06/14 06:43:55;;;;;;;9.10;4.53;;;18.20;71.60;;;;;;5155783;27;20070;-88
2021/06/14 06:46:21;;;;;;;11.27;4.47;;;18.40;71.10;;;;;;5174838;27;20077;-92
2021/06/14 06:48:47;;;;;;;11.35;4.28;;;18.50;71.30;;;;;;5171686;27;20038;-90
2021/06/14 06:51:12;;;;;;;11.00;4.20;;;18.60;71.00;;;;;;5155670;27;20046;-88
2021/06/14 06:53:38;;;;;;;10.50;4.57;;;18.70;70.60;;;;;;5155002;27;20414;-89
2021/06/14 06:56:05;;;;;;;11.43;4.10;;;18.90;69.80;;;;;;5155294;27;20043;-91
2021/06/14 06:58:30;;;;;;;10.70;4.40;;;19.00;69.20;;;;;;5155304;27;20074;-91
2021/06/14 07:00:58;;;;;;;10.95;4.20;;;19.10;68.80;;;;;;5154587;27;20503;-91
2021/06/14 07:03:24;;;;;;;10.60;3.92;;;19.20;68.60;;;;;;5159143;27;20190;-93
2021/06/14 07:05:53;;;;;;;11.05;3.90;;;19.30;68.40;;;;;;5168803;27;20079;-92
2021/06/14 07:08:19;;;;;;;11.05;4.13;;;19.50;68.60;;;;;;5155958;27;20038;-91
2021/06/14 07:10:44;;;;;;;9.23;4.22;;;19.50;68.20;;;;;;5154511;27;20045;-92
2021/06/14 07:13:16;;;;;;;11.77;4.05;;;19.70;68.00;;;;;;5137498;27;20075;-91
2021/06/14 07:15:42;;;;;;;8.57;3.95;;;19.80;66.60;;;;;;5155822;27;20042;-91
2021/06/14 07:18:07;;;;;;;12.50;4.20;;;19.90;66.00;;;;;;5156399;27;20492;-93
2021/06/14 07:20:33;;;;;;;12.00;4.03;;;20.00;65.80;;;;;;5156184;27;20051;-93
2021/06/14 07:22:59;;;;;;;13.77;4.35;;;20.10;66.00;;;;;;5155710;27;20042;-91
2021/06/14 07:25:25;;;;;;;11.88;3.88;;;20.30;65.60;;;;;;5156614;27;20043;-93
2021/06/14 07:27:51;;;;;;;8.57;3.92;;;20.40;64.90;;;;;;5154420;27;20067;-92
2021/06/14 07:30:17;;;;;;;9.98;3.92;;;20.40;64.00;;;;;;5154184;27;20078;-93
2021/06/14 07:32:43;;;;;;;11.52;4.05;;;20.60;63.20;;;;;;5154704;27;20047;-92
2021/06/14 07:35:10;;;;;;;10.13;4.13;;;20.70;63.50;;;;;;5155908;27;20046;-95
2021/06/14 07:37:37;;;;;;;16.58;4.40;;;20.80;63.30;;;;;;5155451;27;20062;-93
2021/06/14 07:40:05;;;;;;;11.30;3.80;;;20.90;63.30;;;;;;5168625;27;20061;-91
2021/06/14 07:42:31;;;;;;;10.93;4.00;;;21.00;62.20;;;;;;5178174;27;20404;-95
2021/06/14 07:44:57;;;;;;;8.57;3.88;;;21.10;62.00;;;;;;5164261;27;20133;-94
2021/06/14 07:47:23;;;;;;;9.13;3.60;;;21.20;62.10;;;;;;5178262;27;20050;-93
2021/06/14 07:49:48;;;;;;;9.90;3.97;;;21.30;61.50;;;;;;5177078;27;20439;-92
2021/06/14 07:52:14;;;;;;;10.60;3.90;;;21.40;60.80;;;;;;5176727;27;20076;-86
2021/06/14 07:54:40;;;;;;;9.20;3.90;;;21.50;61.30;;;;;;5180526;27;20042;-92
2021/06/14 07:57:07;;;;;;;8.32;3.65;;;21.50;60.50;;;;;;5180895;27;20520;-95
2021/06/14 07:59:34;;;;;;;10.45;3.95;;;21.60;60.10;;;;;;5180265;27;20485;-92
2021/06/14 08:02:00;;;;;;;9.32;3.88;;;21.70;60.00;;;;;;5180260;27;20042;-92
2021/06/14 08:04:26;;;;;;;10.32;3.50;;;21.80;59.60;;;;;;5179787;27;20058;-89
2021/06/14 08:06:52;;;;;;;10.88;3.90;;;21.90;59.60;;;;;;5164707;27;20723;-91
2021/06/14 08:09:24;;;;;;;8.60;3.75;;;22.00;59.60;;;;;;5159325;27;20078;-92
2021/06/14 08:11:50;;;;;;;9.15;3.85;;;22.00;59.00;;;;;;5158678;27;20050;-92
2021/06/14 08:14:16;;;;;;;9.40;3.65;;;22.10;58.70;;;;;;5159186;27;20051;-93
2021/06/14 08:16:43;;;;;;;13.68;4.22;;;22.20;58.30;;;;;;5158880;27;20137;-93
2021/06/14 08:22:27;;;;;;;12.43;4.20;;;22.40;57.70;;;;;;5155129;27;20065;-90
2021/06/14 08:25:10;;;;;;;12.27;4.20;;;22.40;58.20;;;;;;5178047;27;20050;-90
2021/06/14 08:27:37;;;;;;;10.80;3.78;;;22.40;57.90;;;;;;5180083;27;20039;-87
2021/06/14 08:30:08;;;;;;;12.13;4.07;;;22.50;58.00;;;;;;5164179;27;20050;-92
2021/06/14 08:32:35;;;;;;;11.05;4.03;;;22.60;57.70;;;;;;5157311;27;20095;-88
2021/06/14 08:35:01;;;;;;;9.70;3.78;;;22.70;57.70;;;;;;5157149;27;20062;-90
2021/06/14 08:37:27;;;;;;;10.65;4.07;;;22.80;57.80;;;;;;5172734;27;20500;-90
2021/06/14 08:39:52;;;;;;;14.63;4.28;;;22.90;57.20;;;;;;5176519;27;20049;-91
2021/06/14 08:42:19;;;;;;;14.57;4.22;;;22.90;57.40;;;;;;5179693;27;20055;-89
2021/06/14 08:44:45;;;;;;;11.23;3.60;;;23.00;57.10;;;;;;5178740;27;20109;-89
2021/06/14 08:47:12;;;;;;;11.18;4.22;;;23.10;57.70;;;;;;5178242;27;20094;-90
2021/06/14 08:49:38;;;;;;;9.43;4.13;;;23.20;58.00;;;;;;5178341;27;20125;-89
2021/06/14 08:52:05;;;;;;;10.15;3.85;;;23.30;57.20;;;;;;5164507;27;20043;-89
2021/06/14 08:54:32;;;;;;;12.15;4.47;;;23.40;57.30;;;;;;5167115;27;20137;-92
2021/06/14 08:56:58;;;;;;;9.75;4.28;;;23.40;56.40;;;;;;5178700;27;20053;-91
2021/06/14 08:59:23;;;;;;;8.98;4.20;;;23.50;56.40;;;;;;5170271;27;20034;-89
2021/06/14 09:01:49;;;;;;;12.27;4.53;;;23.60;56.50;;;;;;5177254;27;20501;-91
2021/06/14 09:04:17;;;;;;;8.00;3.53;;;23.70;55.90;;;;;;5168043;27;20050;-91
2021/06/14 09:06:43;;;;;;;9.80;4.20;;;23.70;56.30;;;;;;5177611;27;20050;-91
2021/06/14 09:09:09;;;;;;;10.82;4.07;;;23.80;56.30;;;;;;5177838;27;20046;-90
2021/06/14 09:11:38;;;;;;;11.90;4.05;;;23.90;56.20;;;;;;5173304;27;20097;-87
2021/06/14 09:14:15;;;;;;;12.50;4.07;;;23.90;56.70;;;;;;5167766;27;20805;-92
2021/06/14 09:16:40;;;;;;;10.63;4.30;;;24.00;56.20;;;;;;5166313;27;20046;-91
2021/06/14 09:19:06;;;;;;;12.88;4.78;;;24.20;56.50;;;;;;5158076;27;20061;-88
2021/06/14 09:21:32;;;;;;;11.98;4.60;;;24.20;55.40;;;;;;5163484;27;20047;-88
2021/06/14 09:24:01;;;;;;;12.93;4.88;;;24.30;56.50;;;;;;5156955;27;20123;-89
2021/06/14 09:26:33;;;;;;;12.07;4.95;;;24.40;55.90;;;;;;5156355;27;20047;-87
2021/06/14 09:29:05;;;;;;;13.18;4.65;;;24.40;54.90;;;;;;5155919;27;20042;-92
2021/06/14 09:31:52;;;;;;;14.98;5.13;;;24.50;55.50;;;;;;5156746;27;20053;-89
2021/06/14 09:34:29;;;;;;;10.88;4.10;;;24.60;54.90;;;;;;5157675;27;20042;-94
2021/06/14 09:36:59;;;;;;;10.50;4.28;;;24.70;53.80;;;;;;5173222;27;20076;-90
2021/06/14 09:39:25;;;;;;;11.90;4.30;;;24.70;53.00;;;;;;5177374;27;20108;-88
2021/06/14 09:41:52;;;;;;;11.27;4.30;;;24.90;53.70;;;;;;5174763;27;20074;-88
2021/06/14 09:44:32;;;;;;;14.05;4.72;;;25.00;53.90;;;;;;5174927;27;20050;-90
2021/06/14 09:47:03;;;;;;;12.23;4.10;;;25.00;51.50;;;;;;5176267;27;20084;-92
2021/06/14 09:49:29;;;;;;;12.43;4.10;;;25.10;52.90;;;;;;5176408;27;20050;-89
2021/06/14 09:51:56;;;;;;;11.82;4.22;;;25.20;54.50;;;;;;5176774;27;20053;-88
2021/06/14 09:54:33;;;;;;;12.90;4.18;;;25.20;53.60;;;;;;5176347;27;20121;-88
2021/06/14 09:57:00;;;;;;;9.68;4.00;;;25.30;52.70;;;;;;5176296;27;20151;-86
2021/06/14 09:59:44;;;;;;;12.18;4.13;;;25.40;52.40;;;;;;5176779;27;20065;-89
2021/06/14 10:02:17;;;;;;;11.70;4.35;;;25.50;52.40;;;;;;5177216;27;20057;-89
2021/06/14 10:04:54;;;;;;;8.55;3.85;;;25.50;52.80;;;;;;5175643;27;20054;-87
2021/06/14 10:07:21;;;;;;;11.32;3.75;;;25.60;52.30;;;;;;5171731;27;20050;-89
2021/06/14 10:09:49;;;;;;;10.43;3.88;;;25.70;52.70;;;;;;5159903;27;20057;-88
2021/06/14 10:12:25;;;;;;;13.55;3.92;;;25.70;52.40;;;;;;5165990;27;20050;-87
2021/06/14 10:15:02;;;;;;;9.93;3.78;;;25.80;50.40;;;;;;5166390;27;20398;-86
2021/06/14 10:17:39;;;;;;;29.85;4.43;;;25.80;51.40;;;;;;5170137;27;20057;-84
2021/06/14 10:20:10;;;;;;;11.63;4.10;;;25.90;51.60;;;;;;5172400;27;20054;-86
2021/06/14 10:22:37;;;;;;;12.27;4.30;;;26.00;51.40;;;;;;5175983;27;20481;-85
2021/06/14 10:25:04;;;;;;;9.38;4.05;;;26.00;50.10;;;;;;5171315;27;20039;-85
2021/06/14 10:27:31;;;;;;;9.30;3.58;;;26.10;51.40;;;;;;5166535;27;20087;-85
2021/06/14 10:29:57;;;;;;;8.10;3.53;;;26.10;51.50;;;;;;5154721;27;20442;-87
2021/06/14 10:32:23;;;;;;;8.25;3.80;;;26.20;50.50;;;;;;5159243;27;20046;-85
2021/06/14 10:34:50;;;;;;;11.15;3.50;;;26.20;51.40;;;;;;5175272;27;20042;-84
2021/06/14 10:37:17;;;;;;;10.77;4.10;;;26.30;52.10;;;;;;5176069;27;20046;-84
2021/06/14 10:39:47;;;;;;;14.60;3.65;;;26.40;50.40;;;;;;5175014;27;20381;-88
2021/06/14 10:42:13;;;;;;;11.80;3.70;;;26.40;50.70;;;;;;5175951;27;20537;-87
2021/06/14 10:44:40;;;;;;;11.75;3.72;;;26.50;51.00;;;;;;5174913;27;20046;-88
2021/06/14 10:47:08;;;;;;;9.60;3.60;;;26.60;50.50;;;;;;5171056;27;20492;-86
2021/06/14 10:49:35;;;;;;;10.15;3.65;;;26.60;51.70;;;;;;5154976;27;20148;-87
2021/06/14 10:52:02;;;;;;;11.25;3.72;;;26.70;50.90;;;;;;5154561;27;20482;-87
2021/06/14 10:54:43;;;;;;;10.43;3.80;;;26.80;50.90;;;;;;5151633;27;20046;-87
2021/06/14 10:57:10;;;;;;;9.30;3.42;;;26.80;52.40;;;;;;5150120;27;20469;-88
2021/06/14 10:59:42;;;;;;;10.75;3.50;;;26.90;50.50;;;;;;5173507;27;20511;-86
2021/06/14 11:02:09;;;;;;;9.77;3.78;;;26.90;51.90;;;;;;5157863;27;20062;-88
2021/06/14 11:04:35;;;;;;;8.52;3.28;;;27.00;51.50;;;;;;5154482;27;20047;-86
2021/06/14 11:07:01;;;;;;;10.80;3.53;;;27.00;53.90;;;;;;5157980;27;20046;-88
2021/06/14 11:09:42;;;;;;;9.07;3.65;;;27.10;53.80;;;;;;5158105;27;20054;-86
2021/06/14 11:12:09;;;;;;;8.13;3.75;;;27.20;52.40;;;;;;5171192;27;20053;-84
2021/06/14 11:14:44;;;;;;;9.32;3.63;;;27.20;50.20;;;;;;5156959;27;20094;-86
2021/06/14 11:17:20;;;;;;;11.60;4.05;;;27.30;50.90;;;;;;5159777;27;20118;-87
2021/06/14 11:19:49;;;;;;;9.45;3.47;;;27.30;51.10;;;;;;5159463;27;20095;-88
2021/06/14 11:22:17;;;;;;;11.05;4.53;;;27.40;52.10;;;;;;5155202;27;20042;-88
2021/06/14 11:24:45;;;;;;;12.35;4.32;;;27.40;50.60;;;;;;5167964;27;20520;-88
2021/06/14 11:27:11;;;;;;;11.98;4.18;;;27.50;49.30;;;;;;5163890;27;20046;-86
2021/06/14 11:29:56;;;;;;;9.85;3.88;;;27.50;49.40;;;;;;5160108;27;20046;-85
2021/06/14 11:32:22;;;;;;;9.82;4.05;;;27.60;50.30;;;;;;5165316;27;20078;-87
2021/06/14 11:34:59;;;;;;;9.93;3.83;;;27.60;50.20;;;;;;5164357;27;20123;-89
2021/06/14 11:37:45;;;;;;;8.15;3.65;;;27.60;48.00;;;;;;5162639;27;20123;-90
2021/06/14 11:40:15;;;;;;;9.25;3.10;;;27.60;48.60;;;;;;5153878;27;20534;-86
2021/06/14 11:42:49;;;;;;;10.10;3.17;;;27.60;47.70;;;;;;5158720;27;20053;-87
2021/06/14 11:45:33;;;;;;;8.32;3.20;;;27.60;47.90;;;;;;5164916;27;20054;-90
2021/06/14 11:48:04;;;;;;;10.45;3.10;;;27.50;48.80;;;;;;5169471;27;20039;-91
2021/06/14 11:50:32;;;;;;;9.05;2.90;;;27.60;48.90;;;;;;5170044;27;20057;-89
2021/06/14 11:53:03;;;;;;;8.57;3.55;;;27.60;47.40;;;;;;5159966;27;20057;-90
2021/06/14 11:55:31;;;;;;;12.55;3.33;;;27.60;46.90;;;;;;5158915;27;20095;-89
2021/06/14 11:58:00;;;;;;;8.05;3.42;;;27.70;49.10;;;;;;5164095;27;20047;-88
2021/06/14 12:00:31;;;;;;;7.53;3.40;;;27.80;48.60;;;;;;5157267;27;20082;-86
2021/06/14 12:02:59;;;;;;;7.73;3.40;;;27.80;47.10;;;;;;5165549;27;20516;-87
2021/06/14 12:05:35;;;;;;;11.13;3.85;;;27.80;47.70;;;;;;5164886;27;20800;-89
2021/06/14 12:08:03;;;;;;;8.55;3.70;;;27.80;48.60;;;;;;5165597;27;20050;-91
2021/06/14 12:10:30;;;;;;;6.63;3.05;;;27.90;50.00;;;;;;5153477;27;20134;-88
2021/06/14 12:13:07;;;;;;;10.77;3.72;;;28.00;53.70;;;;;;5154556;27;20054;-91
2021/06/14 12:15:34;;;;;;;8.70;4.00;;;28.00;49.10;;;;;;5167291;27;20046;-89
2021/06/14 12:18:00;;;;;;;12.07;4.25;;;28.10;48.40;;;;;;5169127;27;20493;-88
2021/06/14 12:20:29;;;;;;;10.63;4.10;;;28.10;48.40;;;;;;5172896;27;20505;-89
2021/06/14 12:23:08;;;;;;;10.77;3.83;;;28.10;48.50;;;;;;5162839;27;20805;-90
2021/06/14 12:25:46;;;;;;;10.80;3.88;;;28.10;49.50;;;;;;5160821;27;20125;-88
2021/06/14 12:28:15;;;;;;;9.75;4.13;;;28.20;52.80;;;;;;5160932;27;20125;-89
2021/06/14 12:30:43;;;;;;;10.65;4.63;;;28.30;51.70;;;;;;5169755;27;20115;-89
2021/06/14 12:33:12;;;;;;;11.48;4.88;;;28.30;49.00;;;;;;5165209;27;20043;-88
2021/06/14 12:35:38;;;;;;;14.65;5.32;;;28.30;49.00;;;;;;5162019;27;20047;-88
2021/06/14 12:38:09;;;;;;;11.05;4.28;;;28.30;49.20;;;;;;5160963;27;20504;-87
2021/06/14 12:40:37;;;;;;;13.82;5.35;;;28.40;51.50;;;;;;5158582;27;20050;-86
2021/06/14 12:43:06;;;;;;;11.57;5.82;;;28.40;50.90;;;;;;5164710;27;20121;-87
2021/06/14 12:45:34;;;;;;;11.10;5.55;;;28.40;50.40;;;;;;5167090;27;20035;-88
2021/06/14 12:48:03;;;;;;;15.70;6.20;;;28.40;51.60;;;;;;5163338;27;20078;-87
2021/06/14 12:50:31;;;;;;;12.52;6.40;;;28.40;52.00;;;;;;5155532;27;20090;-88